Time;durP1;ratioP1;P1;durP2;ratioP2;P2;SDS_P1;SDS_P2;PMS_P1;PMS_P2;Temp;Humidity;BMP_temperature;BMP_pressure;BME280_temperature;BME280_humidity;BME280_pressure;Samples;Min_cycle;Max_cycle;Signal;HPM_P1;HPM_P2
2022/02/24 00:00:52;;;;;;;11.10;5.75;;;;;;;5.59;69.42;99264.34;2624030;54;20041;-65
2022/02/24 00:03:26;;;;;;;8.65;5.38;;;;;;;5.46;70.03;99260.28;2624000;54;20023;-64
2022/02/24 00:05:56;;;;;;;11.32;5.13;;;;;;;5.45;70.12;99258.66;2623783;47;20018;-65
2022/02/24 00:08:26;;;;;;;10.50;5.05;;;;;;;5.54;70.62;99261.34;2623869;54;20038;-65
2022/02/24 00:10:56;;;;;;;8.65;5.35;;;;;;;5.64;70.58;99259.50;2622293;46;20090;-65
2022/02/24 00:13:26;;;;;;;9.65;5.10;;;;;;;5.73;70.33;99250.72;2623725;47;20038;-64
2022/02/24 00:15:55;;;;;;;8.45;4.85;;;;;;;5.77;69.81;99254.69;2624176;54;20054;-65
2022/02/24 00:18:28;;;;;;;10.30;5.40;;;;;;;5.82;69.59;99251.59;2624043;39;20448;-65
2022/02/24 00:20:58;;;;;;;9.88;5.35;;;;;;;5.81;69.91;99261.28;2624296;54;20169;-66
2022/02/24 00:23:28;;;;;;;9.13;5.43;;;;;;;5.88;69.66;99262.34;2624202;39;20156;-65
2022/02/24 00:25:58;;;;;;;10.00;5.32;;;;;;;5.89;69.97;99255.28;2621189;54;20038;-66
2022/02/24 00:28:27;;;;;;;9.70;5.78;;;;;;;5.86;69.38;99255.56;2622685;54;20026;-65
2022/02/24 00:30:57;;;;;;;7.03;5.15;;;;;;;5.81;70.26;99258.66;2622555;47;20034;-65
2022/02/24 00:33:33;;;;;;;10.02;5.43;;;;;;;5.87;69.92;99254.59;2623564;54;20019;-65
2022/02/24 00:36:03;;;;;;;11.70;5.13;;;;;;;5.84;70.31;99241.81;2622833;54;20034;-65
2022/02/24 00:38:33;;;;;;;7.68;4.93;;;;;;;5.84;70.00;99247.03;2622845;54;20038;-64
2022/02/24 00:41:05;;;;;;;8.98;5.40;;;;;;;5.80;70.13;99240.44;2623179;47;20060;-63
2022/02/24 00:43:35;;;;;;;9.55;4.65;;;;;;;5.84;70.39;99241.81;2622673;54;20156;-63
2022/02/24 00:46:05;;;;;;;11.05;5.28;;;;;;;5.89;70.15;99244.78;2622726;54;20049;-63
2022/02/24 00:48:39;;;;;;;8.75;5.22;;;;;;;5.94;70.15;99239.94;2623993;54;20596;-66
2022/02/24 00:51:10;;;;;;;12.25;5.78;;;;;;;5.99;69.86;99235.03;2623099;47;20038;-66
2022/02/24 00:53:41;;;;;;;9.00;4.80;;;;;;;5.99;70.33;99231.59;2621659;54;20038;-65
2022/02/24 00:56:12;;;;;;;8.98;4.97;;;;;;;6.00;69.98;99225.38;2620624;47;20048;-64
2022/02/24 00:58:41;;;;;;;7.88;4.70;;;;;;;5.99;70.48;99223.72;2620507;54;20035;-65
2022/02/24 01:01:11;;;;;;;9.68;5.28;;;;;;;6.07;70.67;99226.41;2620434;39;20437;-66
2022/02/24 01:03:44;;;;;;;8.20;5.18;;;;;;;6.13;70.73;99216.13;2621630;54;20035;-64
2022/02/24 01:06:14;;;;;;;9.85;5.30;;;;;;;6.19;69.97;99219.94;2621076;39;20430;-64
2022/02/24 01:08:43;;;;;;;10.65;5.18;;;;;;;6.14;69.70;99212.53;2620539;54;20034;-62
2022/02/24 01:11:13;;;;;;;9.27;5.45;;;;;;;6.07;69.92;99208.84;2622535;47;20037;-66
2022/02/24 01:13:44;;;;;;;9.05;5.30;;;;;;;6.06;70.55;99209.84;2623488;54;20038;-66
2022/02/24 01:16:13;;;;;;;10.32;5.22;;;;;;;6.10;70.24;99205.94;2622302;54;20057;-64
2022/02/24 01:18:46;;;;;;;11.77;5.55;;;;;;;6.14;69.60;99204.66;2623348;47;20026;-65
2022/02/24 01:21:16;;;;;;;9.95;5.03;;;;;;;6.20;70.38;99206.66;2623269;54;20042;-64
2022/02/24 01:23:46;;;;;;;11.45;5.45;;;;;;;6.31;70.15;99202.13;2623698;54;20049;-64
2022/02/24 01:26:16;;;;;;;9.20;5.05;;;;;;;6.31;70.34;99204.75;2624042;54;20577;-64
2022/02/24 01:28:45;;;;;;;8.93;4.63;;;;;;;6.34;70.10;99197.38;2623209;47;20022;-65
2022/02/24 01:31:16;;;;;;;7.47;4.43;;;;;;;6.40;70.04;99188.03;2622187;54;20034;-65
2022/02/24 01:33:52;;;;;;;9.38;4.82;;;;;;;6.41;69.80;99193.16;2621501;54;20042;-64
2022/02/24 01:36:22;;;;;;;11.05;4.97;;;;;;;6.38;69.64;99185.59;2623324;54;20045;-65
2022/02/24 01:38:52;;;;;;;8.05;4.47;;;;;;;6.37;69.93;99178.69;2622277;51;20021;-64
2022/02/24 01:41:22;;;;;;;9.95;4.75;;;;;;;6.40;69.26;99178.34;2622584;54;20137;-65
2022/02/24 01:43:51;;;;;;;10.55;4.75;;;;;;;6.44;69.36;99169.19;2622850;54;20034;-64
2022/02/24 01:46:21;;;;;;;8.93;4.03;;;;;;;6.45;69.21;99168.22;2623250;54;20106;-66
2022/02/24 01:48:53;;;;;;;9.95;4.68;;;;;;;6.55;69.19;99169.91;2622715;47;20159;-64
2022/02/24 01:51:23;;;;;;;4.80;3.17;;;;;;;6.53;69.20;99166.59;2622177;54;20529;-66
2022/02/24 01:53:53;;;;;;;8.40;4.13;;;;;;;6.59;68.77;99156.28;2622272;54;20046;-64
2022/02/24 01:56:23;;;;;;;8.13;3.72;;;;;;;6.66;68.61;99156.50;2622057;47;20037;-65
2022/02/24 01:58:54;;;;;;;6.95;4.18;;;;;;;6.72;68.71;99149.78;2624004;54;20031;-66
2022/02/24 02:01:24;;;;;;;6.72;2.60;;;;;;;6.86;68.61;99142.09;2625499;39;20433;-65
2022/02/24 02:03:56;;;;;;;3.75;1.98;;;;;;;7.03;67.30;99140.34;2623682;54;20043;-61
2022/02/24 02:06:26;;;;;;;4.95;2.00;;;;;;;7.16;66.56;99142.47;2623172;54;20061;-65
2022/02/24 02:08:56;;;;;;;9.75;2.80;;;;;;;7.22;66.22;99131.31;2622480;54;20534;-65
2022/02/24 02:11:25;;;;;;;5.85;2.80;;;;;;;7.29;65.55;99123.59;2622967;54;20077;-63
2022/02/24 02:13:55;;;;;;;5.43;2.65;;;;;;;7.31;65.66;99114.56;2623663;54;20041;-64
2022/02/24 02:16:25;;;;;;;3.63;2.20;;;;;;;7.29;65.23;99108.63;2622355;54;20082;-65
2022/02/24 02:18:57;;;;;;;6.15;2.50;;;;;;;7.32;65.22;99113.56;2623761;54;20038;-65
2022/02/24 02:21:32;;;;;;;4.28;2.28;;;;;;;7.33;65.05;99106.50;2623450;54;20038;-65
2022/02/24 02:24:03;;;;;;;6.45;2.53;;;;;;;7.37;65.14;99108.63;2623347;54;20078;-65
2022/02/24 02:26:33;;;;;;;6.18;2.53;;;;;;;7.41;64.78;99096.81;2621684;46;20050;-65
2022/02/24 02:29:04;;;;;;;6.47;2.58;;;;;;;7.46;64.68;99104.19;2624143;39;20468;-65
2022/02/24 02:31:34;;;;;;;4.93;2.47;;;;;;;7.49;64.56;99089.91;2623362;54;20042;-64
2022/02/24 02:34:05;;;;;;;4.45;2.13;;;;;;;7.47;64.47;99099.75;2624577;54;20577;-63
2022/02/24 02:36:39;;;;;;;3.25;2.30;;;;;;;7.45;64.65;99100.75;2624836;54;20038;-65
2022/02/24 02:39:11;;;;;;;4.03;2.13;;;;;;;7.45;64.50;99087.59;2625054;54;20039;-69
2022/02/24 02:41:48;;;;;;;4.28;2.63;;;;;;;7.45;63.92;99090.22;2624727;54;20592;-64
2022/02/24 02:44:18;;;;;;;3.88;2.10;;;;;;;7.47;64.31;99074.28;2624953;54;20022;-65
2022/02/24 02:46:48;;;;;;;4.28;2.35;;;;;;;7.51;64.08;99077.38;2625068;47;20037;-65
2022/02/24 02:49:17;;;;;;;3.55;1.73;;;;;;;7.52;64.30;99073.78;2625451;54;20034;-65
2022/02/24 02:51:52;;;;;;;6.05;2.30;;;;;;;7.54;63.60;99070.00;2626578;54;20030;-64
2022/02/24 02:54:21;;;;;;;5.10;2.33;;;;;;;7.56;63.91;99069.84;2625506;54;20049;-64
2022/02/24 02:56:51;;;;;;;4.18;1.83;;;;;;;7.59;63.45;99070.34;2624340;54;20027;-64
2022/02/24 02:59:21;;;;;;;5.13;2.42;;;;;;;7.60;63.67;99064.06;2622817;54;20026;-64
2022/02/24 03:01:54;;;;;;;3.92;2.10;;;;;;;7.65;63.25;99060.94;2622892;54;20022;-64
2022/02/24 03:04:25;;;;;;;4.68;1.95;;;;;;;7.69;63.31;99056.97;2624844;54;20028;-65
2022/02/24 03:06:57;;;;;;;4.38;1.73;;;;;;;7.76;63.25;99042.16;2624996;47;20030;-64
2022/02/24 03:09:27;;;;;;;4.45;2.33;;;;;;;7.75;63.20;99044.94;2624872;47;20038;-65
2022/02/24 03:11:57;;;;;;;4.20;2.28;;;;;;;7.73;62.90;99039.88;2624788;54;20022;-64
2022/02/24 03:14:26;;;;;;;5.72;1.92;;;;;;;7.69;63.03;99044.66;2624621;47;20034;-65
2022/02/24 03:16:56;;;;;;;4.95;2.53;;;;;;;7.68;63.03;99034.28;2624511;54;20046;-64
2022/02/24 03:19:27;;;;;;;6.07;2.28;;;;;;;7.72;63.09;99035.59;2624797;49;20032;-64
2022/02/24 03:21:59;;;;;;;2.85;2.17;;;;;;;7.74;63.03;99023.09;2624794;39;20465;-64
2022/02/24 03:24:28;;;;;;;6.82;3.08;;;;;;;7.77;63.01;99020.13;2625194;54;20034;-64
2022/02/24 03:26:58;;;;;;;5.22;1.92;;;;;;;7.81;62.85;99016.16;2625583;39;20473;-64
2022/02/24 03:29:28;;;;;;;4.57;2.17;;;;;;;7.83;62.77;99022.06;2625633;54;20038;-64
2022/02/24 03:31:58;;;;;;;2.75;2.00;;;;;;;7.87;62.29;99015.47;2625508;54;20046;-64
2022/02/24 03:34:28;;;;;;;3.50;1.90;;;;;;;7.89;62.51;99010.88;2624885;54;20038;-64
2022/02/24 03:37:01;;;;;;;3.83;2.13;;;;;;;7.91;62.29;99008.06;2624506;54;20026;-65
2022/02/24 03:39:30;;;;;;;3.83;2.40;;;;;;;7.93;62.43;99014.81;2623300;54;20038;-64
2022/02/24 03:42:00;;;;;;;3.65;2.10;;;;;;;7.95;62.07;99009.34;2624889;54;20034;-64
2022/02/24 03:44:29;;;;;;;4.95;2.47;;;;;;;7.91;62.35;99006.25;2622044;54;20030;-64
2022/02/24 03:47:00;;;;;;;3.50;1.90;;;;;;;7.88;62.17;98998.72;2623583;54;20041;-64
2022/02/24 03:49:46;;;;;;;4.00;2.25;;;;;;;7.88;62.26;99001.34;2625491;39;20469;-64
2022/02/24 03:52:19;;;;;;;3.03;1.55;;;;;;;7.82;62.48;98996.75;2625351;54;20033;-64
2022/02/24 03:54:49;;;;;;;5.10;1.90;;;;;;;7.83;62.29;98997.56;2624645;47;20053;-64
2022/02/24 03:57:20;;;;;;;4.53;2.30;;;;;;;7.83;62.31;98993.09;2625256;54;20030;-65
2022/02/24 03:59:49;;;;;;;4.28;2.03;;;;;;;7.89;62.55;98987.19;2624222;54;20038;-64
2022/02/24 04:02:19;;;;;;;6.15;2.20;;;;;;;7.89;62.30;98987.19;2625210;46;20081;-65
2022/02/24 04:04:49;;;;;;;4.45;2.20;;;;;;;7.88;62.01;98987.38;2625124;46;20030;-65
2022/02/24 04:07:22;;;;;;;3.22;1.83;;;;;;;7.91;62.07;98989.63;2625814;54;20034;-65
2022/02/24 04:09:52;;;;;;;4.75;1.85;;;;;;;7.91;62.37;98982.53;2625190;54;20030;-65
2022/02/24 04:12:21;;;;;;;6.70;2.70;;;;;;;7.91;61.84;98977.28;2625329;54;20059;-66
2022/02/24 04:14:51;;;;;;;5.10;1.98;;;;;;;7.92;62.25;98971.06;2624816;54;20037;-64
2022/02/24 04:17:22;;;;;;;3.30;1.55;;;;;;;7.97;62.43;98970.53;2625722;54;20038;-64
2022/02/24 04:19:51;;;;;;;3.53;1.90;;;;;;;8.00;61.93;98962.31;2625738;54;20033;-65
2022/02/24 04:22:23;;;;;;;4.38;2.30;;;;;;;8.02;62.27;98962.13;2625283;54;20065;-64
2022/02/24 04:24:53;;;;;;;7.00;2.42;;;;;;;8.02;62.23;98960.31;2625209;47;20033;-65
2022/02/24 04:27:23;;;;;;;6.55;2.92;;;;;;;8.03;61.93;98959.31;2625898;54;20034;-65
2022/02/24 04:29:52;;;;;;;4.97;2.30;;;;;;;8.01;61.94;98958.66;2625207;54;20035;-66
2022/02/24 04:32:22;;;;;;;4.68;2.17;;;;;;;8.01;62.12;98953.41;2625174;54;20598;-65
2022/02/24 04:34:52;;;;;;;10.02;2.80;;;;;;;8.04;61.92;98947.81;2625891;54;20137;-66
2022/02/24 04:37:25;;;;;;;2.08;1.88;;;;;;;8.04;62.11;98939.06;2625152;54;20066;-65
2022/02/24 04:39:54;;;;;;;5.03;1.92;;;;;;;8.03;61.52;98932.16;2624853;54;20038;-66
2022/02/24 04:42:24;;;;;;;4.38;2.00;;;;;;;8.00;61.89;98929.88;2624519;54;20565;-65
2022/02/24 04:44:54;;;;;;;4.40;2.33;;;;;;;8.02;61.63;98925.25;2625803;39;20513;-66
2022/02/24 04:47:25;;;;;;;5.25;2.13;;;;;;;8.05;61.56;98931.00;2625577;39;20477;-66
2022/02/24 04:49:54;;;;;;;4.78;1.75;;;;;;;8.02;62.01;98925.25;2624152;46;20043;-65
2022/02/24 04:52:27;;;;;;;5.68;2.22;;;;;;;8.03;61.61;98919.81;2624347;39;20434;-66
2022/02/24 04:54:57;;;;;;;6.15;3.17;;;;;;;8.09;61.85;98918.31;2623410;46;20045;-65
2022/02/24 04:57:26;;;;;;;4.30;2.50;;;;;;;8.10;61.68;98914.69;2623426;54;20544;-64
2022/02/24 04:59:56;;;;;;;10.20;2.47;;;;;;;8.07;61.61;98910.56;2624363;46;20064;-65
2022/02/24 05:02:26;;;;;;;7.07;2.15;;;;;;;8.08;61.44;98908.75;2624167;54;20037;-65
2022/02/24 05:04:56;;;;;;;2.42;1.83;;;;;;;8.11;61.81;98905.78;2624617;54;20078;-65
2022/02/24 05:07:29;;;;;;;5.30;1.85;;;;;;;8.06;61.41;98908.13;2624951;46;20030;-65
2022/02/24 05:10:01;;;;;;;4.00;1.83;;;;;;;8.06;61.57;98889.69;2625087;54;20066;-64
2022/02/24 05:12:30;;;;;;;4.15;2.22;;;;;;;8.07;62.03;98900.03;2626448;39;20422;-65
2022/02/24 05:15:00;;;;;;;4.40;2.58;;;;;;;8.05;61.98;98891.50;2624595;47;20035;-64
2022/02/24 05:17:30;;;;;;;6.32;2.03;;;;;;;8.07;61.72;98894.78;2623286;54;20065;-63
2022/02/24 05:20:01;;;;;;;5.28;1.92;;;;;;;8.13;61.80;98890.66;2621929;54;20065;-64
2022/02/24 05:22:34;;;;;;;6.72;2.80;;;;;;;8.11;61.72;98885.53;2622535;54;20083;-65
2022/02/24 05:25:04;;;;;;;4.35;2.00;;;;;;;8.12;61.63;98884.56;2622542;39;20752;-65
2022/02/24 05:27:33;;;;;;;5.20;2.20;;;;;;;8.16;61.73;98887.63;2623595;31;20498;-63
2022/02/24 05:30:03;;;;;;;6.55;2.22;;;;;;;8.15;61.88;98878.91;2624405;39;20395;-64
2022/02/24 05:32:33;;;;;;;5.15;2.10;;;;;;;8.19;61.58;98877.56;2622904;54;20030;-65
2022/02/24 05:35:03;;;;;;;2.95;1.88;;;;;;;8.21;61.84;98880.06;2623311;54;20121;-64
2022/02/24 05:37:35;;;;;;;4.28;1.98;;;;;;;8.18;61.56;98875.13;2624270;54;20040;-64
2022/02/24 05:40:07;;;;;;;5.53;2.03;;;;;;;8.18;61.53;98872.50;2624059;54;20038;-64
2022/02/24 05:42:37;;;;;;;6.13;2.58;;;;;;;8.18;61.86;98870.69;2625093;31;20510;-65
2022/02/24 05:45:08;;;;;;;4.45;2.20;;;;;;;8.21;61.81;98861.63;2623218;54;20089;-65
2022/02/24 05:47:38;;;;;;;4.80;2.10;;;;;;;8.24;61.95;98865.69;2623391;54;20686;-65
2022/02/24 05:50:09;;;;;;;5.50;2.22;;;;;;;8.22;61.80;98865.06;2623121;54;20162;-64
2022/02/24 05:52:41;;;;;;;5.57;2.17;;;;;;;8.21;61.74;98851.09;2622918;54;20154;-64
2022/02/24 05:55:12;;;;;;;7.47;2.05;;;;;;;8.23;61.52;98854.34;2622348;54;20041;-64
2022/02/24 05:57:44;;;;;;;4.75;2.17;;;;;;;8.27;61.90;98849.56;2621924;47;20050;-64
2022/02/24 06:00:15;;;;;;;3.03;1.63;;;;;;;8.30;61.98;98843.94;2622432;54;20038;-65
2022/02/24 06:02:46;;;;;;;4.30;2.25;;;;;;;8.32;61.66;98826.94;2622024;54;20041;-64
2022/02/24 06:05:16;;;;;;;4.22;1.83;;;;;;;8.35;61.54;98829.22;2622626;54;20234;-64
2022/02/24 06:07:49;;;;;;;4.47;1.48;;;;;;;8.35;61.59;98818.69;2622122;54;20550;-64
2022/02/24 06:10:19;;;;;;;4.95;1.92;;;;;;;8.39;61.51;98821.81;2622006;54;20517;-64
2022/02/24 06:12:48;;;;;;;4.22;1.70;;;;;;;8.40;61.87;98815.56;2621761;54;20019;-67
2022/02/24 06:15:18;;;;;;;3.45;1.80;;;;;;;8.42;61.69;98813.56;2622020;54;20085;-65
2022/02/24 06:17:47;;;;;;;5.00;1.90;;;;;;;8.40;61.25;98810.28;2621384;54;20027;-64
2022/02/24 06:20:17;;;;;;;4.90;1.70;;;;;;;8.38;61.56;98818.38;2620992;54;20033;-64
2022/02/24 06:22:49;;;;;;;3.15;1.85;;;;;;;8.39;61.30;98822.63;2621241;54;20050;-63
2022/02/24 06:25:19;;;;;;;3.20;1.80;;;;;;;8.33;61.07;98831.25;2622917;54;20035;-63
2022/02/24 06:27:49;;;;;;;7.88;2.15;;;;;;;8.30;61.38;98834.22;2623429;54;20134;-63
2022/02/24 06:30:19;;;;;;;3.83;2.40;;;;;;;8.28;61.89;98825.66;2623264;54;20098;-64
2022/02/24 06:32:48;;;;;;;7.00;2.25;;;;;;;8.34;61.87;98832.06;2622830;54;20042;-63
2022/02/24 06:35:18;;;;;;;5.82;2.25;;;;;;;8.36;61.83;98822.97;2623016;54;20034;-64
2022/02/24 06:37:50;;;;;;;8.15;2.38;;;;;;;8.38;61.93;98826.28;2624775;54;20038;-63
2022/02/24 06:40:20;;;;;;;12.32;2.67;;;;;;;8.39;61.97;98825.28;2624589;54;20026;-63
2022/02/24 06:42:49;;;;;;;4.05;1.80;;;;;;;8.38;61.66;98818.38;2625275;54;20026;-64
2022/02/24 06:45:19;;;;;;;6.88;1.95;;;;;;;8.39;61.53;98819.19;2625101;54;20030;-63
2022/02/24 06:47:49;;;;;;;5.30;2.00;;;;;;;8.41;61.26;98817.22;2624665;54;20034;-63
2022/02/24 06:50:19;;;;;;;3.63;1.75;;;;;;;8.41;61.67;98818.03;2620046;54;20042;-64
2022/02/24 06:52:55;;;;;;;7.25;1.90;;;;;;;8.41;61.75;98810.13;2622030;54;20065;-64
2022/02/24 06:55:26;;;;;;;5.32;1.50;;;;;;;8.41;61.60;98798.78;2624857;54;20027;-65
2022/02/24 06:57:56;;;;;;;4.15;1.90;;;;;;;8.48;61.68;98801.50;2624377;54;20069;-64
2022/02/24 07:00:25;;;;;;;4.13;2.67;;;;;;;8.51;61.47;98801.97;2625056;54;20089;-64
2022/02/24 07:02:55;;;;;;;3.88;2.00;;;;;;;8.57;61.19;98803.03;2625610;39;20433;-63
2022/02/24 07:05:25;;;;;;;3.05;1.67;;;;;;;8.58;61.48;98799.44;2626131;39;20472;-64
2022/02/24 07:07:58;;;;;;;7.50;1.85;;;;;;;8.59;61.04;98796.59;2625416;54;20022;-64
2022/02/24 07:10:27;;;;;;;5.00;1.60;;;;;;;8.61;61.11;98801.69;2625643;47;20540;-64
2022/02/24 07:12:57;;;;;;;10.27;2.15;;;;;;;8.61;61.37;98789.34;2625637;54;20042;-65
2022/02/24 07:15:27;;;;;;;4.45;1.70;;;;;;;8.66;61.51;98794.09;2625484;54;20030;-65
2022/02/24 07:17:57;;;;;;;4.63;1.77;;;;;;;8.67;61.15;98788.63;2625903;54;20025;-65
2022/02/24 07:20:26;;;;;;;4.38;2.00;;;;;;;8.70;61.16;98792.72;2625358;54;20042;-64
2022/02/24 07:22:59;;;;;;;4.72;2.10;;;;;;;8.75;61.24;98779.81;2625462;46;20521;-65
2022/02/24 07:25:28;;;;;;;6.15;2.00;;;;;;;8.77;60.74;98777.81;2626461;39;20429;-65
2022/02/24 07:27:58;;;;;;;5.32;1.88;;;;;;;8.81;60.78;98778.25;2624310;54;20042;-63
2022/02/24 07:30:40;;;;;;;7.43;2.00;;;;;;;8.82;60.93;98778.09;2626915;39;20441;-64
2022/02/24 07:33:12;;;;;;;3.83;1.90;;;;;;;8.86;60.64;98774.09;2625395;54;20046;-65
2022/02/24 07:35:42;;;;;;;8.18;2.13;;;;;;;8.84;60.35;98765.53;2625622;54;20050;-64
2022/02/24 07:38:16;;;;;;;7.57;1.95;;;;;;;8.89;60.27;98763.16;2625528;54;20035;-64
2022/02/24 07:40:46;;;;;;;9.25;1.80;;;;;;;8.91;60.49;98766.44;2625060;47;20023;-65
2022/02/24 07:43:15;;;;;;;3.97;1.70;;;;;;;8.90;60.66;98767.47;2624871;54;20521;-65
2022/02/24 07:45:45;;;;;;;3.67;2.00;;;;;;;8.95;60.55;98756.38;2625444;54;20036;-65
2022/02/24 07:48:16;;;;;;;5.28;2.17;;;;;;;9.03;60.25;98755.44;2625910;54;20018;-66
2022/02/24 07:50:46;;;;;;;7.13;2.00;;;;;;;9.06;59.87;98758.53;2625649;54;20027;-65
2022/02/24 07:53:20;;;;;;;4.20;1.90;;;;;;;9.13;60.04;98755.97;2622744;47;20121;-66
2022/02/24 07:55:49;;;;;;;4.75;1.92;;;;;;;9.11;60.05;98755.34;2625047;54;20041;-65
2022/02/24 07:58:19;;;;;;;8.07;2.08;;;;;;;9.13;59.94;98759.41;2625761;54;20043;-64
2022/02/24 08:00:49;;;;;;;4.82;2.60;;;;;;;9.15;59.89;98756.63;2625252;46;20073;-63
2022/02/24 08:03:20;;;;;;;11.05;3.08;;;;;;;9.15;59.95;98752.16;2625091;51;20054;-64
2022/02/24 08:05:50;;;;;;;7.57;2.47;;;;;;;9.24;59.74;98749.41;2625618;54;20037;-65
2022/02/24 08:08:24;;;;;;;8.13;2.92;;;;;;;9.34;59.76;98752.56;2625680;54;20141;-63
2022/02/24 08:10:54;;;;;;;5.28;2.38;;;;;;;9.40;59.31;98751.84;2625652;54;20032;-63
2022/02/24 08:13:24;;;;;;;7.80;1.88;;;;;;;9.51;59.07;98755.78;2625065;54;20560;-64
2022/02/24 08:15:54;;;;;;;13.60;2.70;;;;;;;9.57;59.19;98742.66;2625104;54;20042;-64
2022/02/24 08:18:24;;;;;;;6.35;2.67;;;;;;;9.58;58.93;98752.22;2625387;54;20046;-63
2022/02/24 08:20:53;;;;;;;5.00;2.53;;;;;;;9.59;59.36;98748.59;2625258;54;20027;-64
2022/02/24 08:23:27;;;;;;;10.52;2.30;;;;;;;9.65;58.74;98747.81;2625423;54;20655;-64
2022/02/24 08:25:57;;;;;;;9.70;2.33;;;;;;;9.79;58.38;98738.19;2624508;47;20052;-64
2022/02/24 08:28:27;;;;;;;5.22;2.10;;;;;;;10.00;59.05;98737.41;2625255;54;20074;-64
2022/02/24 08:30:57;;;;;;;4.68;1.75;;;;;;;10.20;58.34;98734.88;2625780;54;20027;-64
2022/02/24 08:33:27;;;;;;;4.35;2.00;;;;;;;10.31;57.96;98726.47;2623635;54;20050;-64
2022/02/24 08:35:57;;;;;;;6.93;2.30;;;;;;;10.38;58.03;98722.06;2624236;54;20060;-64
2022/02/24 08:38:30;;;;;;;4.75;2.20;;;;;;;10.55;57.06;98712.00;2624014;54;20046;-65
2022/02/24 08:41:20;;;;;;;8.63;2.25;;;;;;;10.73;57.14;98715.94;2624477;54;20046;-63
2022/02/24 08:43:49;;;;;;;3.55;1.95;;;;;;;10.77;56.41;98722.47;2623389;54;20549;-64
2022/02/24 08:46:19;;;;;;;4.40;2.08;;;;;;;10.71;56.79;98723.28;2623578;39;20426;-64
2022/02/24 08:48:49;;;;;;;9.30;2.92;;;;;;;10.68;56.40;98708.59;2623100;54;20038;-64
2022/02/24 08:51:19;;;;;;;3.03;1.70;;;;;;;10.71;55.90;98708.22;2623040;54;20596;-63
2022/02/24 08:53:51;;;;;;;7.50;2.00;;;;;;;10.68;56.03;98711.25;2623148;54;20027;-63
2022/02/24 08:56:21;;;;;;;3.67;2.00;;;;;;;10.68;56.28;98707.81;2622449;54;20151;-63
2022/02/24 08:58:50;;;;;;;5.80;2.17;;;;;;;10.66;55.79;98705.38;2622694;54;20034;-65
2022/02/24 09:01:20;;;;;;;5.97;2.13;;;;;;;10.72;55.59;98701.09;2623142;54;20031;-64
2022/02/24 09:03:50;;;;;;;6.70;2.65;;;;;;;10.67;55.56;98696.41;2621753;54;20033;-64
2022/02/24 09:06:21;;;;;;;6.97;2.17;;;;;;;10.71;55.60;98694.19;2622391;47;20019;-64
2022/02/24 09:08:53;;;;;;;4.32;2.10;;;;;;;10.85;55.29;98680.00;2623410;54;20054;-64
2022/02/24 09:11:24;;;;;;;4.40;2.00;;;;;;;10.98;54.67;98676.59;2625352;54;20034;-64
2022/02/24 09:13:54;;;;;;;3.65;1.95;;;;;;;10.99;54.78;98671.13;2625376;54;20035;-64
2022/02/24 09:16:25;;;;;;;4.95;1.80;;;;;;;11.19;54.85;98671.19;2624312;54;20061;-64
2022/02/24 09:18:55;;;;;;;4.57;2.45;;;;;;;11.37;54.05;98660.84;2623263;54;20030;-64
2022/02/24 09:21:25;;;;;;;7.78;2.15;;;;;;;11.44;53.83;98658.22;2623872;54;20031;-63
2022/02/24 09:23:57;;;;;;;3.95;2.17;;;;;;;11.63;53.50;98649.47;2623252;54;20033;-63
2022/02/24 09:26:27;;;;;;;4.30;2.10;;;;;;;11.58;53.39;98640.50;2623465;54;20070;-64
2022/02/24 09:28:56;;;;;;;4.45;1.65;;;;;;;11.53;53.74;98629.72;2622576;54;20054;-64
2022/02/24 09:31:27;;;;;;;3.70;2.10;;;;;;;11.60;53.89;98628.69;2623547;54;20034;-64
2022/02/24 09:33:56;;;;;;;4.45;2.60;;;;;;;11.57;53.58;98623.81;2624270;54;20049;-63
2022/02/24 09:36:26;;;;;;;4.45;2.30;;;;;;;11.58;54.42;98630.72;2624716;54;20054;-62
2022/02/24 09:38:58;;;;;;;7.60;2.33;;;;;;;11.53;54.07;98619.94;2624709;50;20019;-64
2022/02/24 09:41:28;;;;;;;5.38;2.10;;;;;;;11.50;54.92;98620.31;2624405;54;20026;-64
2022/02/24 09:43:58;;;;;;;5.15;1.92;;;;;;;11.48;54.85;98617.09;2624208;54;20038;-66
2022/02/24 09:46:28;;;;;;;5.90;2.00;;;;;;;11.53;54.49;98621.78;2624865;47;20037;-65
2022/02/24 09:49:04;;;;;;;4.10;1.55;;;;;;;11.54;54.84;98612.81;2625561;54;20263;-63
2022/02/24 09:51:34;;;;;;;4.35;2.40;;;;;;;11.65;54.86;98612.19;2624490;47;20031;-66
2022/02/24 09:54:06;;;;;;;7.55;2.38;;;;;;;11.74;54.93;98602.22;2623636;54;20070;-64
2022/02/24 09:56:36;;;;;;;9.98;2.45;;;;;;;11.75;54.61;98601.19;2623376;54;20057;-64
2022/02/24 09:59:06;;;;;;;4.90;2.40;;;;;;;11.65;55.26;98594.47;2623749;46;20052;-65
2022/02/24 10:01:45;;;;;;;4.55;2.85;;;;;;;11.64;55.17;98613.22;2621459;47;20038;-66
2022/02/24 10:04:15;;;;;;;6.00;2.88;;;;;;;11.54;55.43;98610.97;2621961;47;20038;-64
2022/02/24 10:06:46;;;;;;;9.48;7.32;;;;;;;11.67;55.79;98610.16;2621965;47;20026;-64
2022/02/24 10:09:31;;;;;;;8.75;5.35;;;;;;;11.73;55.97;98609.34;2621342;47;20520;-65
2022/02/24 10:12:09;;;;;;;4.57;2.53;;;;;;;11.77;55.90;98607.09;2621594;47;20038;-63
2022/02/24 10:14:39;;;;;;;4.85;2.58;;;;;;;11.72;55.67;98607.72;2622187;54;20098;-67
2022/02/24 10:17:10;;;;;;;6.15;2.80;;;;;;;11.73;55.97;98597.94;2623571;54;20055;-63
2022/02/24 10:19:43;;;;;;;5.70;2.45;;;;;;;11.69;55.93;98579.00;2623088;47;20030;-64
2022/02/24 10:22:15;;;;;;;5.93;2.70;;;;;;;11.71;55.47;98587.53;2623189;54;20026;-65
2022/02/24 10:24:58;;;;;;;5.70;2.50;;;;;;;11.74;55.80;98578.38;2621276;47;20034;-64
2022/02/24 10:27:29;;;;;;;4.47;2.50;;;;;;;11.80;56.14;98582.88;2623951;39;20450;-62
2022/02/24 10:30:05;;;;;;;4.32;2.17;;;;;;;11.84;55.59;98579.63;2620730;47;20030;-65
2022/02/24 10:32:37;;;;;;;8.07;2.60;;;;;;;11.73;55.86;98574.91;2620961;47;20037;-65
2022/02/24 10:35:23;;;;;;;4.90;2.45;;;;;;;11.65;55.70;98569.84;2621491;39;20515;-64
2022/02/24 10:37:57;;;;;;;7.57;2.40;;;;;;;11.66;56.34;98574.91;2620490;54;20117;-65
2022/02/24 10:40:31;;;;;;;8.40;2.80;;;;;;;11.75;56.22;98588.75;2620962;54;20026;-64
2022/02/24 10:43:17;;;;;;;4.47;2.70;;;;;;;11.80;55.87;98573.09;2621258;46;20042;-64
2022/02/24 10:45:49;;;;;;;6.03;2.33;;;;;;;11.87;56.01;98578.38;2621511;54;20533;-64
2022/02/24 10:48:18;;;;;;;4.55;2.70;;;;;;;11.94;55.57;98573.09;2622657;39;20466;-63
2022/02/24 10:50:55;;;;;;;4.20;2.53;;;;;;;11.90;55.23;98573.50;2621498;54;20046;-63
2022/02/24 10:53:28;;;;;;;4.47;2.30;;;;;;;11.82;55.50;98580.81;2619810;47;20031;-65
2022/02/24 10:56:07;;;;;;;6.35;2.67;;;;;;;11.87;55.83;98573.91;2620840;54;20073;-65
2022/02/24 10:58:39;;;;;;;3.38;2.33;;;;;;;12.03;55.45;98571.84;2621018;54;20576;-64
2022/02/24 11:01:17;;;;;;;5.85;2.97;;;;;;;12.12;55.11;98567.94;2622406;39;20387;-64
2022/02/24 11:03:49;;;;;;;4.65;2.13;;;;;;;12.14;55.24;98579.16;2621966;47;20030;-65
2022/02/24 11:06:20;;;;;;;4.03;2.58;;;;;;;12.07;54.75;98588.94;2622332;47;20034;-62
2022/02/24 11:08:52;;;;;;;4.68;2.47;;;;;;;12.03;55.38;98566.53;2622748;54;20086;-64
2022/02/24 11:11:27;;;;;;;4.82;2.50;;;;;;;11.92;55.37;98568.00;2624149;54;20560;-63
2022/02/24 11:13:58;;;;;;;6.68;2.72;;;;;;;11.92;55.23;98540.69;2624138;47;20039;-66
2022/02/24 11:16:29;;;;;;;4.25;2.60;;;;;;;12.07;55.58;98546.56;2625129;47;20026;-65
2022/02/24 11:18:59;;;;;;;6.65;2.97;;;;;;;12.17;54.96;98544.31;2624732;54;20569;-64
2022/02/24 11:21:31;;;;;;;4.18;2.22;;;;;;;12.15;54.72;98549.78;2623542;54;20037;-64
2022/02/24 11:24:01;;;;;;;3.53;2.42;;;;;;;12.01;54.86;98552.69;2622378;54;20596;-63
2022/02/24 11:26:42;;;;;;;4.60;2.60;;;;;;;11.93;55.41;98545.78;2623784;54;20033;-63
2022/02/24 11:29:20;;;;;;;6.32;3.00;;;;;;;12.04;55.31;98547.81;2624838;54;20039;-64
2022/02/24 11:32:06;;;;;;;4.90;2.83;;;;;;;12.00;55.11;98541.28;2624573;54;20045;-65
2022/02/24 11:35:06;;;;;;;6.00;3.00;;;;;;;11.92;54.87;98527.44;2624765;47;20034;-65
2022/02/24 11:37:38;;;;;;;3.05;2.38;;;;;;;11.83;54.99;98518.91;2624554;47;20030;-64
2022/02/24 11:40:10;;;;;;;5.20;2.47;;;;;;;11.81;55.31;98515.63;2624717;54;20042;-65
2022/02/24 11:42:44;;;;;;;4.57;2.28;;;;;;;11.82;55.17;98514.59;2624747;47;20050;-64
2022/02/24 11:45:33;;;;;;;5.75;2.58;;;;;;;11.81;55.55;98505.84;2625276;54;20045;-65
2022/02/24 11:48:05;;;;;;;5.78;3.22;;;;;;;11.84;55.41;98505.47;2625634;54;20037;-64
2022/02/24 11:50:37;;;;;;;3.70;2.50;;;;;;;11.83;55.26;98500.38;2624978;54;20038;-64
2022/02/24 11:53:09;;;;;;;3.80;2.72;;;;;;;11.81;55.64;98497.09;2624988;54;20061;-64
2022/02/24 11:55:44;;;;;;;3.78;2.22;;;;;;;11.78;55.61;98490.38;2625756;54;20039;-64
2022/02/24 11:58:35;;;;;;;5.70;2.70;;;;;;;11.65;56.03;98503.66;2625918;54;20030;-64